Time,TemperatureF,DewpointF,PressureIn,WindDirection,WindDirectionDegrees,WindSpeedMPH,WindSpeedGustMPH,Humidity,HourlyPrecipIn,Conditions,Clouds,dailyrainin,SoftwareType,DateUTC
2012-10-21 00:04:00,33.5,19.7,0.00,NW,314,23.1,-999.0,56,0.02,,,-99.99,,2012-10-21 08:04:00,
2012-10-21 00:09:00,33.8,18.9,0.00,NW,304,24.8,-999.0,54,0.03,,,-99.99,,2012-10-21 08:09:00,
2012-10-21 00:15:00,33.6,19.8,0.00,NW,313,22.3,-999.0,56,0.05,,,-99.99,,2012-10-21 08:15:00,
2012-10-21 00:20:00,33.9,19.4,0.00,NNW,335,21.4,-999.0,55,0.11,,,-99.99,,2012-10-21 08:20:00,
2012-10-21 00:25:00,33.6,17.7,0.00,NW,304,21.3,-999.0,51,0.15,,,-99.99,,2012-10-21 08:25:00,
2012-10-21 00:30:00,34.1,18.9,0.00,NW,313,27.1,-999.0,53,0.18,,,-99.99,,2012-10-21 08:30:00,
2012-10-21 00:35:00,34.6,18.9,0.00,NW,308,24.9,-999.0,52,0.32,,,-99.99,,2012-10-21 08:35:00,
2012-10-21 00:40:00,34.2,19.3,0.00,WNW,292,27.0,-999.0,54,0.32,,,-99.99,,2012-10-21 08:40:00,
2012-10-21 00:45:00,35.0,17.5,0.00,West,279,23.9,-999.0,48,0.32,,,-99.99,,2012-10-21 08:45:00,
2012-10-21 00:50:00,33.9,19.3,0.00,WNW,299,24.2,-999.0,54,0.32,,,-99.99,,2012-10-21 08:50:00,
2012-10-21 00:55:00,33.6,19.6,0.00,NNW,327,23.3,-999.0,56,0.32,,,-99.99,,2012-10-21 08:55:00,
2012-10-21 01:00:00,33.5,20.2,0.00,WNW,301,31.0,-999.0,57,0.00,,,-99.99,,2012-10-21 09:00:00,
2012-10-21 01:05:00,33.6,20.4,0.00,NW,307,34.0,-999.0,58,0.00,,,-99.99,,2012-10-21 09:05:00,
2012-10-21 01:10:00,33.7,20.1,0.00,West,274,22.3,-999.0,57,0.00,,,-99.99,,2012-10-21 09:10:00,
2012-10-21 01:15:00,33.3,20.5,0.00,West,280,22.1,-999.0,58,0.00,,,-99.99,,2012-10-21 09:15:00,
2012-10-21 01:21:00,33.5,20.8,0.00,NNW,339,20.2,-999.0,59,0.00,,,-99.99,,2012-10-21 09:21:00,
2012-10-21 01:26:00,33.0,20.6,0.00,WNW,301,27.4,-999.0,60,0.00,,,-99.99,,2012-10-21 09:26:00,
2012-10-21 01:31:00,33.5,20.9,0.00,WNW,301,34.5,-999.0,59,0.00,,,-99.99,,2012-10-21 09:31:00,
2012-10-21 01:36:00,33.5,20.6,0.00,WNW,302,34.6,-999.0,59,0.00,,,-99.99,,2012-10-21 09:36:00,
2012-10-21 01:41:00,33.4,20.8,0.00,WNW,286,21.4,-999.0,59,0.00,,,-99.99,,2012-10-21 09:41:00,
2012-10-21 01:46:00,33.4,20.4,0.00,WNW,283,22.6,-999.0,58,0.00,,,-99.99,,2012-10-21 09:46:00,
2012-10-21 01:51:00,33.6,20.1,0.00,NW,305,28.1,-999.0,57,0.00,,,-99.99,,2012-10-21 09:51:00,
2012-10-21 01:56:00,33.6,20.1,0.00,WNW,285,19.2,-999.0,57,0.00,,,-99.99,,2012-10-21 09:56:00,
2012-10-21 02:01:00,33.3,20.5,0.00,NW,315,24.1,-999.0,58,0.00,,,-99.99,,2012-10-21 10:01:00,
2012-10-21 02:06:00,33.3,20.6,0.00,NNW,341,22.2,-999.0,59,0.00,,,-99.99,,2012-10-21 10:06:00,
2012-10-21 02:11:00,33.2,19.6,0.00,NW,316,32.6,-999.0,57,0.00,,,-99.99,,2012-10-21 10:11:00,
2012-10-21 02:16:00,33.3,20.5,0.00,NW,308,35.2,-999.0,59,0.00,,,-99.99,,2012-10-21 10:16:00,
2012-10-21 02:21:00,33.3,20.1,0.00,NNW,337,39.0,-999.0,58,0.00,,,-99.99,,2012-10-21 10:21:00,
2012-10-21 02:26:00,33.2,20.1,0.00,NW,318,29.0,-999.0,58,0.00,,,-99.99,,2012-10-21 10:26:00,
2012-10-21 02:32:00,33.3,20.1,0.00,NW,309,27.8,-999.0,58,0.00,,,-99.99,,2012-10-21 10:32:00,
2012-10-21 02:37:00,33.4,19.8,0.00,NW,320,36.2,-999.0,57,0.00,,,-99.99,,2012-10-21 10:37:00,
2012-10-21 02:42:00,33.4,19.8,0.00,NW,317,29.5,-999.0,57,0.00,,,-99.99,,2012-10-21 10:42:00,
2012-10-21 02:47:00,33.1,19.7,0.00,NW,305,30.7,-999.0,57,0.00,,,-99.99,,2012-10-21 10:47:00,
2012-10-21 02:52:00,33.4,20.4,0.00,NW,314,30.3,-999.0,58,0.00,,,-99.99,,2012-10-21 10:52:00,
2012-10-21 02:57:00,33.1,20.6,0.00,NW,304,29.9,-999.0,59,0.00,,,-99.99,,2012-10-21 10:57:00,
2012-10-21 03:02:00,33.5,20.6,0.00,NW,311,31.0,-999.0,59,0.00,,,-99.99,,2012-10-21 11:02:00,
2012-10-21 03:07:00,33.2,19.2,0.00,NW,326,36.0,-999.0,56,0.00,,,-99.99,,2012-10-21 11:07:00,
2012-10-21 03:12:00,33.3,20.4,0.00,NW,326,35.7,-999.0,58,0.00,,,-99.99,,2012-10-21 11:12:00,
2012-10-21 03:17:00,33.3,20.0,0.00,NW,316,27.5,-999.0,57,0.00,,,-99.99,,2012-10-21 11:17:00,
2012-10-21 03:22:00,33.2,20.0,0.00,WNW,284,27.2,-999.0,58,0.00,,,-99.99,,2012-10-21 11:22:00,
2012-10-21 03:27:00,33.3,20.4,0.00,North,349,26.2,-999.0,58,0.00,,,-99.99,,2012-10-21 11:27:00,
2012-10-21 03:32:00,32.7,21.0,0.00,NW,323,24.3,-999.0,61,0.00,,,-99.99,,2012-10-21 11:32:00,
2012-10-21 03:37:00,32.8,20.3,0.00,NNW,341,30.3,-999.0,59,0.00,,,-99.99,,2012-10-21 11:37:00,
2012-10-21 03:43:00,33.2,21.2,0.00,NNW,338,21.5,-999.0,61,0.00,,,-99.99,,2012-10-21 11:43:00,
2012-10-21 03:48:00,33.0,20.9,0.00,NW,314,26.6,-999.0,60,0.01,,,-99.99,,2012-10-21 11:48:00,
2012-10-21 03:53:00,33.2,20.1,0.00,NNW,335,23.5,-999.0,58,0.01,,,-99.99,,2012-10-21 11:53:00,
2012-10-21 03:58:00,32.7,20.7,0.00,NW,311,41.9,-999.0,60,0.03,,,-99.99,,2012-10-21 11:58:00,
2012-10-21 04:03:00,33.2,17.4,0.00,NW,320,37.9,-999.0,51,0.02,,,-99.99,,2012-10-21 12:03:00,
2012-10-21 04:08:00,33.0,20.2,0.00,NW,306,22.0,-999.0,58,0.03,,,-99.99,,2012-10-21 12:08:00,
2012-10-21 04:13:00,33.0,19.6,0.00,NW,317,33.0,-999.0,57,0.03,,,-99.99,,2012-10-21 12:13:00,
2012-10-21 04:18:00,33.2,20.1,0.00,West,281,25.2,-999.0,58,0.03,,,-99.99,,2012-10-21 12:18:00,
2012-10-21 04:23:00,33.0,20.3,0.00,NW,313,18.7,-999.0,59,0.05,,,-99.99,,2012-10-21 12:23:00,
2012-10-21 04:28:00,32.8,19.5,0.00,NW,305,26.6,-999.0,57,0.06,,,-99.99,,2012-10-21 12:28:00,
2012-10-21 04:34:00,32.8,19.0,0.00,NNW,332,20.0,-999.0,56,0.07,,,-99.99,,2012-10-21 12:34:00,
2012-10-21 04:39:00,32.5,20.2,0.00,NW,321,20.2,-999.0,60,0.07,,,-99.99,,2012-10-21 12:39:00,
2012-10-21 04:44:00,32.5,21.3,0.00,NW,318,16.8,-999.0,63,0.07,,,-99.99,,2012-10-21 12:44:00,
2012-10-21 04:49:00,32.6,19.5,0.00,NW,326,30.4,-999.0,58,0.08,,,-99.99,,2012-10-21 12:49:00,
2012-10-21 04:54:00,32.7,21.0,0.00,NW,316,24.3,-999.0,61,0.12,,,-99.99,,2012-10-21 12:54:00,
2012-10-21 04:59:00,32.6,19.9,0.00,NW,325,30.3,-999.0,59,0.00,,,-99.99,,2012-10-21 12:59:00,
2012-10-21 05:04:00,32.7,19.7,0.00,NW,305,34.0,-999.0,58,0.02,,,-99.99,,2012-10-21 13:04:00,
2012-10-21 05:10:00,32.7,19.2,0.00,NW,313,37.6,-999.0,57,0.26,,,-99.99,,2012-10-21 13:10:00,
2012-10-21 05:15:00,32.4,19.5,0.00,NNW,339,23.6,-999.0,58,0.29,,,-99.99,,2012-10-21 13:15:00,
2012-10-21 05:20:00,32.5,19.7,0.00,WNW,303,23.5,-999.0,58,0.29,,,-99.99,,2012-10-21 13:20:00,
2012-10-21 05:25:00,32.5,20.1,0.00,NNW,345,20.6,-999.0,59,0.29,,,-99.99,,2012-10-21 13:25:00,
2012-10-21 05:30:00,32.7,18.5,0.00,NNW,334,26.8,-999.0,55,0.29,,,-99.99,,2012-10-21 13:30:00,
2012-10-21 05:36:00,32.8,18.8,0.00,NNW,327,30.3,-999.0,55,0.29,,,-99.99,,2012-10-21 13:36:00,
2012-10-21 05:41:00,33.0,18.1,0.00,NNW,333,21.7,-999.0,53,0.31,,,-99.99,,2012-10-21 13:41:00,
2012-10-21 05:46:00,32.8,18.7,0.00,NW,323,19.7,-999.0,55,0.31,,,-99.99,,2012-10-21 13:46:00,
2012-10-21 05:51:00,33.5,17.2,0.00,SW,224,8.0,-999.0,50,0.31,,,-99.99,,2012-10-21 13:51:00,
2012-10-21 05:56:00,33.2,17.6,0.00,WNW,294,19.0,-999.0,52,0.31,,,-99.99,,2012-10-21 13:56:00,
2012-10-21 06:01:00,33.2,17.1,0.00,NNW,331,22.6,-999.0,51,0.00,,,-99.99,,2012-10-21 14:01:00,
2012-10-21 06:08:00,33.3,16.2,0.00,NNW,328,13.8,-999.0,49,0.00,,,-99.99,,2012-10-21 14:08:00,
2012-10-21 06:14:00,33.0,14.7,0.00,WNW,303,5.7,-999.0,46,0.00,,,-99.99,,2012-10-21 14:14:00,
2012-10-21 06:19:00,32.9,17.6,0.00,NW,304,3.2,-999.0,53,0.00,,,-99.99,,2012-10-21 14:19:00,
2012-10-21 06:24:00,32.2,17.7,0.00,West,274,8.8,-999.0,54,0.00,,,-99.99,,2012-10-21 14:24:00,
2012-10-21 06:29:00,32.7,16.9,0.00,NW,324,14.8,-999.0,51,0.00,,,-99.99,,2012-10-21 14:29:00,
2012-10-21 06:34:00,32.4,17.4,0.00,WNW,291,14.6,-999.0,53,0.00,,,-99.99,,2012-10-21 14:34:00,
2012-10-21 06:39:00,32.5,18.8,0.00,NW,313,14.2,-999.0,56,0.00,,,-99.99,,2012-10-21 14:39:00,
2012-10-21 06:44:00,32.5,17.1,0.00,West,270,9.7,-999.0,52,0.00,,,-99.99,,2012-10-21 14:44:00,
2012-10-21 06:49:00,32.2,16.5,0.00,WNW,300,14.8,-999.0,52,0.00,,,-99.99,,2012-10-21 14:49:00,
2012-10-21 06:54:00,32.1,17.7,0.00,NW,306,12.9,-999.0,54,0.00,,,-99.99,,2012-10-21 14:54:00,
2012-10-21 06:59:00,32.2,18.1,0.00,NNW,337,17.8,-999.0,55,0.00,,,-99.99,,2012-10-21 14:59:00,
2012-10-21 07:06:00,32.2,16.3,0.00,NW,322,17.6,-999.0,51,0.00,,,-99.99,,2012-10-21 15:06:00,
2012-10-21 07:11:00,32.4,15.9,0.00,NW,323,25.3,-999.0,50,0.00,,,-99.99,,2012-10-21 15:11:00,
2012-10-21 07:16:00,31.7,18.7,0.00,NW,321,20.2,-999.0,58,0.00,,,-99.99,,2012-10-21 15:16:00,
2012-10-21 07:21:00,31.7,19.0,0.00,NW,316,24.8,-999.0,59,0.00,,,-99.99,,2012-10-21 15:21:00,
2012-10-21 07:26:00,31.6,17.3,0.00,NW,314,28.2,-999.0,55,0.00,,,-99.99,,2012-10-21 15:26:00,
2012-10-21 07:32:00,31.6,19.5,0.00,NW,306,14.9,-999.0,60,0.00,,,-99.99,,2012-10-21 15:32:00,
2012-10-21 07:37:00,31.5,20.0,0.00,NW,313,9.0,-999.0,62,0.00,,,-99.99,,2012-10-21 15:37:00,
2012-10-21 07:42:00,31.0,20.2,0.00,NW,324,7.7,-999.0,63,0.00,,,-99.99,,2012-10-21 15:42:00,
2012-10-21 07:47:00,31.4,20.5,0.00,NW,325,10.2,-999.0,63,0.00,,,-99.99,,2012-10-21 15:47:00,
2012-10-21 07:52:00,31.6,19.9,0.00,West,281,12.2,-999.0,61,0.00,,,-99.99,,2012-10-21 15:52:00,
2012-10-21 07:57:00,31.4,19.9,0.00,NW,324,17.0,-999.0,62,0.00,,,-99.99,,2012-10-21 15:57:00,
2012-10-21 08:04:00,31.4,19.6,0.00,NW,314,20.9,-999.0,61,0.00,,,-99.99,,2012-10-21 16:04:00,
2012-10-21 08:09:00,31.5,19.7,0.00,NNW,329,23.1,-999.0,61,0.00,,,-99.99,,2012-10-21 16:09:00,
2012-10-21 08:14:00,31.3,19.2,0.00,WNW,301,11.2,-999.0,60,0.00,,,-99.99,,2012-10-21 16:14:00,
2012-10-21 08:19:00,31.3,19.3,0.00,NNW,327,8.7,-999.0,60,0.00,,,-99.99,,2012-10-21 16:19:00,
2012-10-21 08:24:00,31.6,18.8,0.00,NNW,338,8.6,-999.0,58,0.00,,,-99.99,,2012-10-21 16:24:00,
2012-10-21 08:29:00,31.5,19.4,0.00,WNW,303,12.7,-999.0,60,0.00,,,-99.99,,2012-10-21 16:29:00,
2012-10-21 08:34:00,31.4,19.6,0.00,WNW,296,10.9,-999.0,61,0.00,,,-99.99,,2012-10-21 16:34:00,
2012-10-21 08:39:00,31.5,19.1,0.00,NW,319,20.0,-999.0,59,0.00,,,-99.99,,2012-10-21 16:39:00,
2012-10-21 08:45:00,31.3,18.8,0.00,WNW,300,16.6,-999.0,59,0.00,,,-99.99,,2012-10-21 16:45:00,
2012-10-21 08:50:00,31.5,18.7,0.00,NW,321,15.6,-999.0,58,0.00,,,-99.99,,2012-10-21 16:50:00,
2012-10-21 08:55:00,31.7,18.7,0.00,NW,325,16.7,-999.0,58,0.00,,,-99.99,,2012-10-21 16:55:00,
2012-10-21 09:02:00,31.6,18.2,0.00,NW,304,14.7,-999.0,57,0.00,,,-99.99,,2012-10-21 17:02:00,
2012-10-21 09:07:00,31.9,17.9,0.00,NW,309,21.9,-999.0,55,0.00,,,-99.99,,2012-10-21 17:07:00,
2012-10-21 09:12:00,31.8,17.9,0.00,NNW,332,10.2,-999.0,56,0.00,,,-99.99,,2012-10-21 17:12:00,
2012-10-21 09:17:00,31.9,18.2,0.00,NW,320,13.0,-999.0,56,0.00,,,-99.99,,2012-10-21 17:17:00,
2012-10-21 09:23:00,32.0,17.7,0.00,WNW,292,9.1,-999.0,55,0.00,,,-99.99,,2012-10-21 17:23:00,
2012-10-21 09:28:00,31.9,17.8,0.00,NW,319,16.5,-999.0,55,0.00,,,-99.99,,2012-10-21 17:28:00,
2012-10-21 09:33:00,32.1,18.3,0.00,NW,307,18.3,-999.0,56,0.00,,,-99.99,,2012-10-21 17:33:00,
2012-10-21 09:38:00,32.1,18.2,0.00,NW,311,13.5,-999.0,56,0.00,,,-99.99,,2012-10-21 17:38:00,
2012-10-21 09:44:00,32.1,17.7,0.00,NW,313,7.5,-999.0,54,0.00,,,-99.99,,2012-10-21 17:44:00,
2012-10-21 09:49:00,32.2,16.3,0.00,NW,312,15.6,-999.0,51,0.00,,,-99.99,,2012-10-21 17:49:00,
2012-10-21 09:54:00,32.4,17.0,0.00,WNW,283,14.9,-999.0,52,0.00,,,-99.99,,2012-10-21 17:54:00,
2012-10-21 10:00:00,32.4,17.0,0.00,West,274,12.7,-999.0,52,0.00,,,-99.99,,2012-10-21 18:00:00,
2012-10-21 10:05:00,32.3,17.5,0.00,West,279,11.7,-999.0,53,0.00,,,-99.99,,2012-10-21 18:05:00,
2012-10-21 10:10:00,32.4,17.4,0.00,NW,322,16.0,-999.0,53,0.00,,,-99.99,,2012-10-21 18:10:00,
2012-10-21 10:15:00,32.2,17.3,0.00,NW,307,10.7,-999.0,53,0.00,,,-99.99,,2012-10-21 18:15:00,
2012-10-21 10:20:00,32.6,17.1,0.00,NNW,338,12.3,-999.0,52,0.00,,,-99.99,,2012-10-21 18:20:00,
2012-10-21 10:25:00,32.7,16.7,0.00,NNW,332,6.3,-999.0,51,0.00,,,-99.99,,2012-10-21 18:25:00,
2012-10-21 10:31:00,32.5,17.6,0.00,WNW,302,7.5,-999.0,53,0.00,,,-99.99,,2012-10-21 18:31:00,
2012-10-21 10:36:00,32.8,18.3,0.00,NNW,337,7.8,-999.0,54,0.00,,,-99.99,,2012-10-21 18:36:00,
2012-10-21 10:41:00,32.7,17.5,0.00,NW,315,9.7,-999.0,53,0.00,,,-99.99,,2012-10-21 18:41:00,
2012-10-21 10:46:00,32.7,16.7,0.00,West,273,6.5,-999.0,51,0.00,,,-99.99,,2012-10-21 18:46:00,
2012-10-21 10:51:00,33.0,17.0,0.00,WNW,297,12.3,-999.0,51,0.00,,,-99.99,,2012-10-21 18:51:00,
2012-10-21 10:58:00,33.0,16.9,0.00,NE,56,2.3,-999.0,50,0.00,,,-99.99,,2012-10-21 18:58:00,
2012-10-21 11:03:00,33.1,17.0,0.00,NW,306,11.0,-999.0,51,0.00,,,-99.99,,2012-10-21 19:03:00,
2012-10-21 11:08:00,33.2,11.3,0.00,NW,314,13.0,-999.0,39,0.00,,,-99.99,,2012-10-21 19:08:00,
2012-10-21 11:13:00,33.4,15.5,0.00,WNW,293,3.2,-999.0,47,0.00,,,-99.99,,2012-10-21 19:13:00,
2012-10-21 11:18:00,33.2,16.9,0.00,NE,38,1.2,-999.0,50,0.00,,,-99.99,,2012-10-21 19:18:00,
2012-10-21 11:23:00,33.5,15.1,0.00,NNW,345,4.7,-999.0,46,0.00,,,-99.99,,2012-10-21 19:23:00,
2012-10-21 11:28:00,33.4,17.2,0.00,North,4,2.4,-999.0,51,0.00,,,-99.99,,2012-10-21 19:28:00,
2012-10-21 11:33:00,33.3,16.3,0.00,NNW,327,8.2,-999.0,49,0.00,,,-99.99,,2012-10-21 19:33:00,
2012-10-21 11:38:00,33.4,17.4,0.00,NNW,340,4.7,-999.0,51,0.00,,,-99.99,,2012-10-21 19:38:00,
2012-10-21 11:43:00,33.7,17.7,0.00,NNE,22,3.1,-999.0,51,0.00,,,-99.99,,2012-10-21 19:43:00,
2012-10-21 11:48:00,33.7,16.9,0.00,NW,316,3.7,-999.0,49,0.00,,,-99.99,,2012-10-21 19:48:00,
2012-10-21 11:53:00,33.8,15.4,0.00,NW,324,8.3,-999.0,46,0.00,,,-99.99,,2012-10-21 19:53:00,
2012-10-21 11:58:00,33.5,16.7,0.00,SSW,210,5.2,-999.0,49,0.00,,,-99.99,,2012-10-21 19:58:00,
2012-10-21 12:04:00,34.6,17.9,0.00,NNE,18,3.1,-999.0,50,0.00,,,-99.99,,2012-10-21 20:04:00,
2012-10-21 12:09:00,34.6,17.9,0.00,NE,48,2.0,-999.0,50,0.00,,,-99.99,,2012-10-21 20:09:00,
2012-10-21 12:14:00,34.2,16.8,0.00,WNW,303,1.5,-999.0,48,0.00,,,-99.99,,2012-10-21 20:14:00,
2012-10-21 12:19:00,33.8,18.8,0.00,WNW,293,6.3,-999.0,53,0.00,,,-99.99,,2012-10-21 20:19:00,
2012-10-21 12:24:00,34.0,18.8,0.00,West,264,0.0,-999.0,53,0.00,,,-99.99,,2012-10-21 20:24:00,
2012-10-21 12:29:00,34.5,19.9,0.00,NNW,330,4.0,-999.0,55,0.00,,,-99.99,,2012-10-21 20:29:00,
2012-10-21 12:34:00,34.4,16.9,0.00,NW,305,7.2,-999.0,48,0.00,,,-99.99,,2012-10-21 20:34:00,
2012-10-21 12:39:00,34.0,18.3,0.00,NW,310,3.9,-999.0,52,0.00,,,-99.99,,2012-10-21 20:39:00,
2012-10-21 12:44:00,34.2,18.2,0.00,North,0,6.1,-999.0,51,0.00,,,-99.99,,2012-10-21 20:44:00,
2012-10-21 12:49:00,34.4,19.2,0.00,NW,313,4.6,-999.0,53,0.00,,,-99.99,,2012-10-21 20:49:00,
2012-10-21 12:54:00,34.2,19.8,0.00,NW,315,5.1,-999.0,55,0.00,,,-99.99,,2012-10-21 20:54:00,
2012-10-21 12:59:00,34.1,19.3,0.00,NW,321,6.3,-999.0,54,0.00,,,-99.99,,2012-10-21 20:59:00,
2012-10-21 13:04:00,34.6,19.2,0.00,NW,306,9.2,-999.0,53,0.00,,,-99.99,,2012-10-21 21:04:00,
2012-10-21 13:09:00,34.4,18.4,0.00,North,352,5.0,-999.0,51,0.00,,,-99.99,,2012-10-21 21:09:00,
2012-10-21 13:14:00,35.5,19.0,0.00,NE,48,0.8,-999.0,50,0.00,,,-99.99,,2012-10-21 21:14:00,
2012-10-21 13:19:00,36.1,19.3,0.00,West,263,4.0,-999.0,50,0.00,,,-99.99,,2012-10-21 21:19:00,
2012-10-21 13:24:00,34.9,18.0,0.00,NNW,341,6.4,-999.0,49,0.00,,,-99.99,,2012-10-21 21:24:00,
2012-10-21 13:29:00,34.9,18.3,0.00,NW,308,1.8,-999.0,50,0.00,,,-99.99,,2012-10-21 21:29:00,
2012-10-21 13:34:00,35.3,19.3,0.00,WSW,243,4.4,-999.0,51,0.00,,,-99.99,,2012-10-21 21:34:00,
2012-10-21 13:39:00,35.8,18.7,0.00,West,263,2.2,-999.0,49,0.00,,,-99.99,,2012-10-21 21:39:00,
2012-10-21 13:44:00,36.2,21.0,0.00,South,182,3.6,-999.0,53,0.00,,,-99.99,,2012-10-21 21:44:00,
2012-10-21 13:49:00,36.2,19.4,0.00,West,268,6.1,-999.0,50,0.00,,,-99.99,,2012-10-21 21:49:00,
2012-10-21 13:54:00,36.1,17.7,0.00,NNW,340,4.7,-999.0,46,0.00,,,-99.99,,2012-10-21 21:54:00,
2012-10-21 13:59:00,35.4,20.0,0.00,WNW,282,8.1,-999.0,53,0.00,,,-99.99,,2012-10-21 21:59:00,
2012-10-21 14:04:00,35.2,19.8,0.00,WSW,246,10.4,-999.0,53,0.00,,,-99.99,,2012-10-21 22:04:00,
2012-10-21 14:09:00,35.1,19.7,0.00,WSW,257,7.2,-999.0,53,0.00,,,-99.99,,2012-10-21 22:09:00,
2012-10-21 14:14:00,35.0,19.6,0.00,WSW,253,4.4,-999.0,53,0.00,,,-99.99,,2012-10-21 22:14:00,
2012-10-21 14:19:00,35.0,19.1,0.00,NW,309,5.5,-999.0,51,0.00,,,-99.99,,2012-10-21 22:19:00,
2012-10-21 14:24:00,36.5,19.2,0.00,NNW,339,0.2,-999.0,49,0.00,,,-99.99,,2012-10-21 22:24:00,
2012-10-21 14:29:00,36.1,18.9,0.00,SW,224,3.5,-999.0,49,0.00,,,-99.99,,2012-10-21 22:29:00,
2012-10-21 14:34:00,37.0,19.1,0.00,North,1,2.2,-999.0,48,0.00,,,-99.99,,2012-10-21 22:34:00,
2012-10-21 14:39:00,35.8,20.3,0.00,SW,234,5.1,-999.0,53,0.00,,,-99.99,,2012-10-21 22:39:00,
2012-10-21 14:44:00,35.7,20.6,0.00,WNW,282,7.5,-999.0,53,0.00,,,-99.99,,2012-10-21 22:44:00,
2012-10-21 14:51:00,35.7,20.0,0.00,WNW,301,6.0,-999.0,52,0.00,,,-99.99,,2012-10-21 22:51:00,
2012-10-21 14:56:00,35.9,21.0,0.00,NNW,333,4.2,-999.0,54,0.00,,,-99.99,,2012-10-21 22:56:00,
2012-10-21 15:01:00,36.2,20.5,0.00,NNW,329,5.2,-999.0,52,0.00,,,-99.99,,2012-10-21 23:01:00,
2012-10-21 15:06:00,35.9,20.6,0.00,NW,321,3.8,-999.0,53,0.00,,,-99.99,,2012-10-21 23:06:00,
2012-10-21 15:11:00,35.6,20.4,0.00,NW,317,6.7,-999.0,53,0.00,,,-99.99,,2012-10-21 23:11:00,
2012-10-21 15:16:00,35.8,20.8,0.00,WSW,246,3.8,-999.0,54,0.00,,,-99.99,,2012-10-21 23:16:00,
2012-10-21 15:21:00,36.9,21.3,0.00,NNW,335,2.2,-999.0,52,0.00,,,-99.99,,2012-10-21 23:21:00,
2012-10-21 15:26:00,36.4,21.1,0.00,SSW,208,0.8,-999.0,53,0.00,,,-99.99,,2012-10-21 23:26:00,
2012-10-21 15:31:00,36.2,20.2,0.00,NNW,332,6.5,-999.0,51,0.00,,,-99.99,,2012-10-21 23:31:00,
2012-10-21 15:36:00,36.3,20.6,0.00,West,271,1.4,-999.0,52,0.00,,,-99.99,,2012-10-21 23:36:00,
2012-10-21 15:41:00,36.6,21.8,0.00,West,263,4.0,-999.0,54,0.00,,,-99.99,,2012-10-21 23:41:00,
2012-10-21 15:48:00,36.1,22.1,0.00,WSW,238,9.7,-999.0,56,0.00,,,-99.99,,2012-10-21 23:48:00,
2012-10-21 15:53:00,36.2,21.4,0.00,SW,229,4.6,-999.0,54,0.00,,,-99.99,,2012-10-21 23:53:00,
2012-10-21 15:58:00,36.2,21.9,0.00,West,273,5.7,-999.0,55,0.00,,,-99.99,,2012-10-21 23:58:00,
2012-10-21 16:03:00,36.2,22.2,0.00,NW,305,6.2,-999.0,56,0.00,,,-99.99,,2012-10-22 00:03:00,
2012-10-21 16:08:00,35.8,22.7,0.00,WSW,250,5.7,-999.0,58,0.00,,,-99.99,,2012-10-22 00:08:00,
2012-10-21 16:13:00,36.1,23.1,0.00,WSW,249,5.1,-999.0,58,0.00,,,-99.99,,2012-10-22 00:13:00,
2012-10-21 16:18:00,36.0,22.8,0.00,WSW,251,6.1,-999.0,58,0.00,,,-99.99,,2012-10-22 00:18:00,
2012-10-21 16:23:00,36.2,23.7,0.00,WSW,247,6.4,-999.0,60,0.00,,,-99.99,,2012-10-22 00:23:00,
2012-10-21 16:28:00,35.6,23.4,0.00,SW,234,8.5,-999.0,60,0.00,,,-99.99,,2012-10-22 00:28:00,
2012-10-21 16:33:00,35.5,23.3,0.00,WSW,241,10.5,-999.0,60,0.00,,,-99.99,,2012-10-22 00:33:00,
2012-10-21 16:38:00,35.5,23.2,0.00,West,262,9.0,-999.0,60,0.00,,,-99.99,,2012-10-22 00:38:00,
2012-10-21 16:43:00,35.7,23.8,0.00,SW,233,3.5,-999.0,61,0.00,,,-99.99,,2012-10-22 00:43:00,
2012-10-21 16:49:00,35.8,23.1,0.00,WSW,240,6.8,-999.0,59,0.00,,,-99.99,,2012-10-22 00:49:00,
2012-10-21 16:54:00,35.6,23.3,0.00,West,268,9.6,-999.0,60,0.00,,,-99.99,,2012-10-22 00:54:00,
2012-10-21 16:59:00,35.5,22.9,0.00,SW,231,9.8,-999.0,59,0.00,,,-99.99,,2012-10-22 00:59:00,
2012-10-21 17:04:00,35.7,23.0,0.00,WSW,238,8.9,-999.0,59,0.00,,,-99.99,,2012-10-22 01:04:00,
2012-10-21 17:09:00,35.8,23.3,0.00,WSW,239,2.8,-999.0,59,0.00,,,-99.99,,2012-10-22 01:09:00,
2012-10-21 17:14:00,35.8,23.3,0.00,WSW,256,4.9,-999.0,60,0.00,,,-99.99,,2012-10-22 01:14:00,
2012-10-21 17:19:00,35.8,23.7,0.00,SW,233,6.4,-999.0,61,0.00,,,-99.99,,2012-10-22 01:19:00,
2012-10-21 17:24:00,35.8,23.7,0.00,SW,229,5.6,-999.0,60,0.00,,,-99.99,,2012-10-22 01:24:00,
2012-10-21 17:29:00,35.5,23.6,0.00,SW,223,4.5,-999.0,61,0.00,,,-99.99,,2012-10-22 01:29:00,
2012-10-21 17:34:00,35.0,23.0,0.00,WSW,256,5.7,-999.0,61,0.00,,,-99.99,,2012-10-22 01:34:00,
2012-10-21 17:39:00,34.7,22.9,0.00,WSW,238,5.5,-999.0,61,0.00,,,-99.99,,2012-10-22 01:39:00,
2012-10-21 17:44:00,34.5,23.1,0.00,SW,229,6.6,-999.0,62,0.00,,,-99.99,,2012-10-22 01:44:00,
2012-10-21 17:49:00,34.7,23.3,0.00,SW,226,8.7,-999.0,62,0.00,,,-99.99,,2012-10-22 01:49:00,
2012-10-21 17:54:00,34.4,23.0,0.00,WSW,239,7.9,-999.0,62,0.00,,,-99.99,,2012-10-22 01:54:00,
2012-10-21 17:59:00,34.5,23.1,0.00,WSW,252,8.9,-999.0,62,0.00,,,-99.99,,2012-10-22 01:59:00,
2012-10-21 18:04:00,34.2,23.0,0.00,WSW,254,9.8,-999.0,63,0.00,,,-99.99,,2012-10-22 02:04:00,
2012-10-21 18:09:00,34.0,22.9,0.00,WSW,256,8.5,-999.0,63,0.00,,,-99.99,,2012-10-22 02:09:00,
2012-10-21 18:14:00,34.0,22.8,0.00,West,259,8.4,-999.0,63,0.00,,,-99.99,,2012-10-22 02:14:00,
2012-10-21 18:19:00,34.3,22.5,0.00,West,260,6.0,-999.0,61,0.00,,,-99.99,,2012-10-22 02:19:00,
2012-10-21 18:24:00,34.2,22.1,0.00,West,271,7.4,-999.0,61,0.00,,,-99.99,,2012-10-22 02:24:00,
2012-10-21 18:29:00,34.4,22.0,0.00,West,265,7.4,-999.0,60,0.00,,,-99.99,,2012-10-22 02:29:00,
2012-10-21 18:34:00,34.4,21.8,0.00,West,262,6.8,-999.0,59,0.00,,,-99.99,,2012-10-22 02:34:00,
2012-10-21 18:39:00,34.3,21.4,0.00,WSW,252,5.6,-999.0,58,0.00,,,-99.99,,2012-10-22 02:39:00,
2012-10-21 18:44:00,34.3,21.1,0.00,West,274,5.1,-999.0,58,0.00,,,-99.99,,2012-10-22 02:44:00,
2012-10-21 18:49:00,34.5,21.3,0.00,West,275,4.2,-999.0,58,0.00,,,-99.99,,2012-10-22 02:49:00,
2012-10-21 18:54:00,34.6,20.5,0.00,West,259,1.2,-999.0,56,0.00,,,-99.99,,2012-10-22 02:54:00,
2012-10-21 18:59:00,34.5,18.9,0.00,NW,318,2.8,-999.0,52,0.00,,,-99.99,,2012-10-22 02:59:00,
2012-10-21 19:05:00,34.6,20.2,0.00,West,263,2.9,-999.0,55,0.00,,,-99.99,,2012-10-22 03:05:00,
2012-10-21 19:10:00,34.7,20.1,0.00,SW,236,0.0,-999.0,54,0.00,,,-99.99,,2012-10-22 03:10:00,
2012-10-21 19:15:00,34.6,19.4,0.00,West,273,0.7,-999.0,53,0.00,,,-99.99,,2012-10-22 03:15:00,
2012-10-21 19:20:00,34.8,19.3,0.00,NW,315,0.6,-999.0,52,0.00,,,-99.99,,2012-10-22 03:20:00,
2012-10-21 19:25:00,34.6,21.3,0.00,SE,146,1.7,-999.0,57,0.00,,,-99.99,,2012-10-22 03:25:00,
2012-10-21 19:30:00,34.4,19.8,0.00,ENE,62,0.0,-999.0,54,0.00,,,-99.99,,2012-10-22 03:30:00,
2012-10-21 19:35:00,34.5,20.9,0.00,South,175,0.1,-999.0,57,0.00,,,-99.99,,2012-10-22 03:35:00,
2012-10-21 19:40:00,34.2,21.0,0.00,SE,124,0.8,-999.0,58,0.00,,,-99.99,,2012-10-22 03:40:00,
2012-10-21 19:45:00,33.9,22.1,0.00,SE,124,0.0,-999.0,61,0.00,,,-99.99,,2012-10-22 03:45:00,
2012-10-21 19:50:00,33.8,20.3,0.00,ESE,123,0.0,-999.0,57,0.00,,,-99.99,,2012-10-22 03:50:00,
2012-10-21 19:55:00,33.8,21.3,0.00,NNW,341,0.0,-999.0,60,0.00,,,-99.99,,2012-10-22 03:55:00,
2012-10-21 20:00:00,33.3,20.8,0.00,NNW,341,0.0,-999.0,59,0.00,,,-99.99,,2012-10-22 04:00:00,
2012-10-21 20:02:00,33.5,20.8,0.00,North,0,0.0,-999.0,59,0.00,,,-99.99,,2012-10-22 04:02:00,
2012-10-21 20:04:00,33.5,22.6,0.00,ESE,123,1.3,-999.0,64,0.00,,,-99.99,,2012-10-22 04:04:00,
2012-10-21 20:09:00,33.2,22.9,0.00,ESE,121,1.5,-999.0,65,0.00,,,-99.99,,2012-10-22 04:09:00,
2012-10-21 20:14:00,33.0,22.9,0.00,SE,127,1.0,-999.0,66,0.00,,,-99.99,,2012-10-22 04:14:00,
2012-10-21 20:19:00,32.9,22.9,0.00,NNE,32,0.0,-999.0,66,0.00,,,-99.99,,2012-10-22 04:19:00,
2012-10-21 20:24:00,32.8,23.0,0.00,North,2,0.0,-999.0,66,0.00,,,-99.99,,2012-10-22 04:24:00,
2012-10-21 20:28:00,32.8,23.1,0.00,East,88,2.2,-999.0,67,0.00,,,-99.99,,2012-10-22 04:28:00,
2012-10-21 20:33:00,32.8,23.0,0.00,ESE,114,1.0,-999.0,66,0.00,,,-99.99,,2012-10-22 04:33:00,
2012-10-21 20:38:00,32.8,22.4,0.00,ESE,118,0.8,-999.0,65,0.00,,,-99.99,,2012-10-22 04:38:00,
2012-10-21 20:43:00,33.2,22.4,0.00,ESE,109,2.1,-999.0,64,0.00,,,-99.99,,2012-10-22 04:43:00,
2012-10-21 20:48:00,33.4,22.4,0.00,ESE,121,1.5,-999.0,63,0.00,,,-99.99,,2012-10-22 04:48:00,
2012-10-21 20:53:00,32.8,22.3,0.00,East,97,1.3,-999.0,64,0.00,,,-99.99,,2012-10-22 04:53:00,
2012-10-21 20:58:00,32.5,22.3,0.00,SSE,149,0.3,-999.0,65,0.00,,,-99.99,,2012-10-22 04:58:00,
2012-10-21 21:03:00,32.3,22.3,0.00,SW,215,0.0,-999.0,66,0.00,,,-99.99,,2012-10-22 05:03:00,
2012-10-21 21:08:00,32.3,22.3,0.00,SE,124,0.0,-999.0,66,0.00,,,-99.99,,2012-10-22 05:08:00,
2012-10-21 21:13:00,32.4,22.5,0.00,East,99,0.0,-999.0,66,0.00,,,-99.99,,2012-10-22 05:13:00,
2012-10-21 21:18:00,32.5,22.3,0.00,WSW,253,0.0,-999.0,65,0.00,,,-99.99,,2012-10-22 05:18:00,
2012-10-21 21:23:00,32.3,22.0,0.00,SSE,154,0.0,-999.0,65,0.00,,,-99.99,,2012-10-22 05:23:00,
2012-10-21 21:28:00,32.4,22.1,0.00,ESE,106,0.9,-999.0,65,0.00,,,-99.99,,2012-10-22 05:28:00,
2012-10-21 21:33:00,32.5,22.0,0.00,SE,140,1.0,-999.0,64,0.00,,,-99.99,,2012-10-22 05:33:00,
2012-10-21 21:38:00,33.0,22.2,0.00,SE,137,0.0,-999.0,64,0.00,,,-99.99,,2012-10-22 05:38:00,
2012-10-21 21:43:00,32.7,21.9,0.00,SE,137,1.1,-999.0,64,0.00,,,-99.99,,2012-10-22 05:43:00,
2012-10-21 21:48:00,33.5,22.3,0.00,SE,141,1.1,-999.0,63,0.00,,,-99.99,,2012-10-22 05:48:00,
2012-10-21 21:53:00,33.8,22.3,0.00,SSE,152,1.4,-999.0,62,0.00,,,-99.99,,2012-10-22 05:53:00,
2012-10-21 21:58:00,33.8,22.0,0.00,SSE,156,1.3,-999.0,61,0.00,,,-99.99,,2012-10-22 05:58:00,
2012-10-21 22:03:00,34.0,22.0,0.00,SE,141,1.8,-999.0,61,0.00,,,-99.99,,2012-10-22 06:03:00,
2012-10-21 22:08:00,34.0,22.0,0.00,SSE,167,2.3,-999.0,61,0.00,,,-99.99,,2012-10-22 06:08:00,
2012-10-21 22:13:00,33.8,21.9,0.00,SSE,166,2.0,-999.0,61,0.00,,,-99.99,,2012-10-22 06:13:00,
2012-10-21 22:18:00,33.5,21.7,0.00,SSE,157,2.4,-999.0,61,0.00,,,-99.99,,2012-10-22 06:18:00,
2012-10-21 22:23:00,33.9,22.0,0.00,SSE,153,2.5,-999.0,61,0.00,,,-99.99,,2012-10-22 06:23:00,
2012-10-21 22:28:00,33.9,21.8,0.00,SSE,168,2.6,-999.0,60,0.00,,,-99.99,,2012-10-22 06:28:00,
2012-10-21 22:34:00,34.0,21.8,0.00,South,191,2.5,-999.0,60,0.00,,,-99.99,,2012-10-22 06:34:00,
2012-10-21 22:39:00,34.1,19.7,0.00,SSW,196,4.0,-999.0,55,0.00,,,-99.99,,2012-10-22 06:39:00,
2012-10-21 22:44:00,34.0,16.7,0.00,SSW,213,5.0,-999.0,48,0.00,,,-99.99,,2012-10-22 06:44:00,
2012-10-21 22:49:00,34.1,12.5,0.00,WSW,240,5.2,-999.0,40,0.00,,,-99.99,,2012-10-22 06:49:00,
2012-10-21 22:54:00,33.7,13.6,0.00,WSW,247,5.4,-999.0,43,0.00,,,-99.99,,2012-10-22 06:54:00,
2012-10-21 22:59:00,33.8,12.7,0.00,West,269,6.1,-999.0,41,0.00,,,-99.99,,2012-10-22 06:59:00,
2012-10-21 23:04:00,34.0,12.3,0.00,West,276,2.8,-999.0,40,0.00,,,-99.99,,2012-10-22 07:04:00,
2012-10-21 23:10:00,34.4,11.6,0.00,West,262,2.7,-999.0,38,0.00,,,-99.99,,2012-10-22 07:10:00,
2012-10-21 23:15:00,34.4,12.0,0.00,West,265,2.6,-999.0,38,0.00,,,-99.99,,2012-10-22 07:15:00,
2012-10-21 23:20:00,34.4,11.8,0.00,NW,305,3.7,-999.0,38,0.00,,,-99.99,,2012-10-22 07:20:00,
2012-10-21 23:26:00,34.4,10.7,0.00,WNW,290,2.8,-999.0,36,0.00,,,-99.99,,2012-10-22 07:26:00,
2012-10-21 23:32:00,34.2,13.3,0.00,WNW,286,1.2,-999.0,41,0.00,,,-99.99,,2012-10-22 07:32:00,
2012-10-21 23:37:00,34.1,11.4,0.00,WNW,300,1.1,-999.0,38,0.00,,,-99.99,,2012-10-22 07:37:00,
2012-10-21 23:42:00,34.1,12.1,0.00,WNW,296,1.5,-999.0,39,0.00,,,-99.99,,2012-10-22 07:42:00,
2012-10-21 23:47:00,33.8,14.3,0.00,NW,322,1.6,-999.0,44,0.00,,,-99.99,,2012-10-22 07:47:00,
2012-10-21 23:52:00,33.9,12.3,0.00,WNW,293,1.1,-999.0,40,0.00,,,-99.99,,2012-10-22 07:52:00,
2012-10-21 23:57:00,34.0,11.6,0.00,WNW,292,0.0,-999.0,39,0.00,,,-99.99,,2012-10-22 07:57:00,